Terminal Aerodrome Forecast
Issued by NWS

Home | Current Version | Previous Version | Text Only | Print | Product List | Glossary Off
Versions: 1 2 3 4 5 6 7 8 9 10 11 12 13 14 15 16 17 18 19 20

100
FTUS43 KMPX 231125
TAFRNH
TAF
KRNH 231125Z 2312/2412 28004KT 1SM BR OVC003
     FM231500 28003KT 3SM BR OVC008
     FM231900 27003KT P6SM OVC015
     FM240200 VRB02KT 4SM BR OVC015
     FM240900 13003KT 3SM BR OVC008=

USA.gov is the U.S. government's official web portal to all federal, state and local government web resources and services.